createdAt,value
2023-06-25T00:01:44.586Z,5.47
2023-06-25T00:04:30.297Z,4.78
2023-06-25T00:07:18.065Z,4.70
2023-06-25T00:10:03.952Z,4.22
2023-06-25T00:12:49.585Z,4.57
2023-06-25T00:15:35.230Z,5.15
2023-06-25T00:18:20.750Z,4.32
2023-06-25T00:21:07.429Z,5.05
2023-06-25T00:23:52.998Z,4.80
2023-06-25T00:26:38.373Z,5.63
2023-06-25T00:29:23.792Z,4.55
2023-06-25T00:32:09.625Z,5.20
2023-06-25T00:34:58.894Z,5.50
2023-06-25T00:37:46.858Z,4.85
2023-06-25T00:40:32.338Z,5.68
2023-06-25T00:43:18.051Z,5.03
2023-06-25T00:46:03.506Z,4.35
2023-06-25T00:48:49.631Z,4.32
2023-06-25T00:51:36.827Z,5.00
2023-06-25T00:54:23.131Z,4.88
2023-06-25T00:57:09.739Z,4.18
2023-06-25T00:59:56.729Z,4.18
2023-06-25T01:03:38.826Z,5.05
2023-06-25T01:06:31.034Z,4.68
2023-06-25T01:09:18.179Z,4.88
2023-06-25T01:12:05.338Z,4.40
2023-06-25T01:14:51.135Z,5.05
2023-06-25T01:17:38.299Z,4.72
2023-06-25T01:20:30.014Z,4.40
2023-06-25T01:23:15.687Z,5.05
2023-06-25T01:26:01.574Z,4.75
2023-06-25T01:28:47.275Z,4.40
2023-06-25T01:31:33.119Z,4.07
2023-06-25T01:34:25.023Z,4.47
2023-06-25T01:37:10.848Z,4.95
2023-06-25T01:39:56.821Z,5.15
2023-06-25T01:42:42.143Z,5.10
2023-06-25T01:45:28.035Z,5.13
2023-06-25T01:48:14.048Z,4.85
2023-06-25T01:50:59.836Z,4.75
2023-06-25T01:53:45.271Z,5.55
2023-06-25T01:56:30.732Z,4.93
2023-06-25T01:59:16.191Z,5.30
2023-06-25T02:02:02.913Z,5.18
2023-06-25T02:04:49.843Z,5.43
2023-06-25T02:07:35.861Z,4.90
2023-06-25T02:10:21.514Z,5.20
2023-06-25T02:13:07.063Z,5.18
2023-06-25T02:15:52.341Z,5.40
2023-06-25T02:18:38.343Z,5.35
2023-06-25T02:21:24.080Z,4.80
2023-06-25T02:24:09.373Z,5.57
2023-06-25T02:26:55.122Z,5.65
2023-06-25T02:29:40.472Z,5.55
2023-06-25T02:32:26.467Z,5.15
2023-06-25T02:35:12.193Z,5.60
2023-06-25T02:37:57.661Z,5.18
2023-06-25T02:40:43.263Z,4.63
2023-06-25T02:43:28.488Z,5.57
2023-06-25T02:46:13.892Z,5.93
2023-06-25T02:48:59.784Z,5.10
2023-06-25T02:51:45.511Z,5.20
2023-06-25T02:54:30.906Z,5.15
2023-06-25T02:57:17.848Z,4.97
2023-06-25T03:00:06.158Z,4.18
2023-06-25T03:02:53.916Z,4.53
2023-06-25T03:05:39.842Z,4.20
2023-06-25T03:08:26.005Z,4.00
2023-06-25T03:11:12.058Z,3.78
2023-06-25T03:13:57.350Z,4.18
2023-06-25T03:16:43.327Z,4.22
2023-06-25T03:19:29.120Z,3.10
2023-06-25T03:22:14.394Z,3.63
2023-06-25T03:25:04.301Z,3.63
2023-06-25T03:27:50.689Z,3.20
2023-06-25T03:30:39.502Z,3.25
2023-06-25T03:33:24.878Z,3.53
2023-06-25T03:36:10.471Z,3.20
2023-06-25T03:38:56.400Z,3.50
2023-06-25T03:41:42.420Z,3.50
2023-06-25T03:44:27.774Z,4.00
2023-06-25T03:47:13.242Z,3.55
2023-06-25T03:49:59.227Z,3.50
2023-06-25T03:52:45.457Z,3.97
2023-06-25T03:55:30.771Z,3.70
2023-06-25T03:58:16.307Z,3.75
2023-06-25T04:01:01.673Z,3.95
2023-06-25T04:03:47.452Z,5.05
2023-06-25T04:06:32.962Z,4.45
2023-06-25T04:09:18.431Z,4.25
2023-06-25T04:12:04.861Z,3.40
2023-06-25T04:14:50.441Z,3.58
2023-06-25T04:17:35.803Z,3.22
2023-06-25T04:20:21.735Z,3.20
2023-06-25T04:23:08.101Z,2.92
2023-06-25T04:25:53.532Z,3.38
2023-06-25T04:28:39.674Z,3.30
2023-06-25T04:31:26.307Z,3.33
2023-06-25T04:34:12.149Z,3.20
2023-06-25T04:37:00.899Z,3.10
2023-06-25T04:39:46.226Z,3.17
2023-06-25T04:42:32.253Z,2.85
2023-06-25T04:45:19.756Z,3.25
2023-06-25T04:48:06.238Z,2.85
2023-06-25T04:50:51.817Z,4.05
2023-06-25T04:53:37.270Z,3.05
2023-06-25T04:56:22.734Z,3.08
2023-06-25T04:59:08.156Z,2.88
2023-06-25T05:01:53.965Z,3.42
2023-06-25T05:04:39.910Z,3.50
2023-06-25T05:07:25.156Z,3.88
2023-06-25T05:10:10.638Z,2.97
2023-06-25T05:12:56.324Z,3.28
2023-06-25T05:15:42.522Z,3.58
2023-06-25T05:18:28.108Z,3.45
2023-06-25T05:21:13.482Z,3.85
2023-06-25T05:24:01.192Z,3.75
2023-06-25T05:26:47.144Z,3.88
2023-06-25T05:29:32.794Z,2.95
2023-06-25T05:32:18.980Z,3.30
2023-06-25T05:35:04.739Z,3.67
2023-06-25T05:37:51.076Z,3.90
2023-06-25T05:40:36.861Z,3.30
2023-06-25T05:43:22.224Z,3.42
2023-06-25T05:46:12.723Z,3.92
2023-06-25T05:48:58.301Z,3.80
2023-06-25T05:51:43.561Z,3.75
2023-06-25T05:54:28.943Z,3.40
2023-06-25T05:57:14.484Z,3.80
2023-06-25T05:59:59.926Z,4.10
2023-06-25T06:02:45.490Z,4.90
2023-06-25T06:05:30.841Z,3.78
2023-06-25T06:08:16.241Z,3.28
2023-06-25T06:11:01.612Z,4.05
2023-06-25T06:13:47.004Z,4.13
2023-06-25T06:16:32.341Z,4.75
2023-06-25T06:19:17.746Z,3.83
2023-06-25T06:22:03.975Z,4.35
2023-06-25T06:24:49.296Z,4.45
2023-06-25T06:27:34.775Z,3.45
2023-06-25T06:30:20.416Z,3.03
2023-06-25T06:33:06.028Z,3.35
2023-06-25T06:35:51.434Z,3.05
2023-06-25T06:38:37.022Z,2.58
2023-06-25T06:41:22.690Z,2.58
2023-06-25T06:44:16.234Z,3.10
2023-06-25T06:47:01.794Z,2.63
2023-06-25T06:49:47.607Z,2.90
2023-06-25T06:52:32.878Z,2.88
2023-06-25T06:55:18.193Z,3.10
2023-06-25T06:58:03.552Z,3.33
2023-06-25T07:00:49.001Z,3.58
2023-06-25T07:03:34.387Z,3.05
2023-06-25T07:06:19.815Z,2.90
2023-06-25T07:09:05.075Z,3.25
2023-06-25T07:11:50.411Z,4.20
2023-06-25T07:14:35.704Z,7.03
2023-06-25T07:17:21.211Z,7.65
2023-06-25T07:20:07.900Z,6.85
2023-06-25T07:22:53.316Z,2.95
2023-06-25T07:25:39.239Z,2.33
2023-06-25T07:28:25.329Z,1.70
2023-06-25T07:31:10.621Z,1.38
2023-06-25T07:33:57.209Z,0.98
2023-06-25T07:36:42.705Z,1.58
2023-06-25T07:39:33.869Z,1.35
2023-06-25T07:42:19.024Z,1.70
2023-06-25T07:45:05.378Z,0.95
2023-06-25T07:47:50.920Z,1.30
2023-06-25T07:50:36.497Z,1.30
2023-06-25T07:53:21.814Z,1.58
2023-06-25T07:56:07.592Z,1.92
2023-06-25T07:58:52.979Z,1.55
2023-06-25T08:01:38.315Z,1.35
2023-06-25T08:04:23.966Z,1.60
2023-06-25T08:07:10.396Z,1.08
2023-06-25T08:09:59.545Z,1.23
2023-06-25T08:12:45.742Z,1.50
2023-06-25T08:15:31.224Z,1.45
2023-06-25T08:18:16.524Z,1.00
2023-06-25T08:21:01.893Z,1.10
2023-06-25T08:23:47.095Z,1.25
2023-06-25T08:26:32.438Z,1.17
2023-06-25T08:29:17.737Z,1.25
2023-06-25T08:32:03.224Z,1.05
2023-06-25T08:34:48.943Z,1.42
2023-06-25T08:37:34.895Z,1.17
2023-06-25T08:40:20.639Z,0.80
2023-06-25T08:43:06.326Z,1.35
2023-06-25T08:45:51.784Z,1.08
2023-06-25T08:48:39.537Z,1.50
2023-06-25T08:51:26.038Z,1.38
2023-06-25T08:54:11.820Z,0.80
2023-06-25T08:56:57.538Z,1.27
2023-06-25T08:59:42.729Z,1.13
2023-06-25T09:02:29.133Z,1.17
2023-06-25T09:05:25.340Z,1.23
2023-06-25T09:08:15.562Z,1.50
2023-06-25T09:11:01.422Z,1.10
2023-06-25T09:13:47.136Z,1.08
2023-06-25T09:16:33.367Z,1.13
2023-06-25T09:19:22.387Z,1.20
2023-06-25T09:22:07.714Z,1.10
2023-06-25T09:24:53.022Z,1.00
2023-06-25T09:27:39.048Z,1.02
2023-06-25T09:30:25.049Z,1.15
2023-06-25T09:33:12.558Z,1.50
2023-06-25T09:36:15.661Z,1.15
2023-06-25T09:39:01.556Z,0.93
2023-06-25T09:41:47.922Z,0.80
2023-06-25T09:44:35.360Z,1.00
2023-06-25T09:47:21.723Z,1.27
2023-06-25T09:50:12.333Z,1.02
2023-06-25T09:53:00.335Z,1.13
2023-06-25T09:55:46.499Z,0.90
2023-06-25T09:58:32.385Z,1.30
2023-06-25T10:01:18.046Z,1.15
2023-06-25T10:04:04.185Z,1.30
2023-06-25T10:06:51.243Z,2.05
2023-06-25T10:09:36.989Z,1.33
2023-06-25T10:12:22.363Z,1.25
2023-06-25T10:15:08.408Z,1.35
2023-06-25T10:17:54.259Z,1.67
2023-06-25T10:20:45.542Z,1.70
2023-06-25T10:23:31.459Z,1.42
2023-06-25T10:26:17.016Z,1.38
2023-06-25T10:29:07.352Z,1.00
2023-06-25T10:31:52.737Z,1.40
2023-06-25T10:34:41.470Z,0.90
2023-06-25T10:37:35.012Z,1.00
2023-06-25T10:40:21.320Z,1.10
2023-06-25T10:43:07.704Z,0.70
2023-06-25T10:45:57.518Z,0.68
2023-06-25T10:48:46.490Z,1.13
2023-06-25T10:51:34.484Z,0.70
2023-06-25T10:54:22.582Z,1.20
2023-06-25T10:57:12.766Z,0.75
2023-06-25T10:59:58.115Z,1.08
2023-06-25T11:02:43.543Z,0.70
2023-06-25T11:05:38.510Z,0.57
2023-06-25T11:08:25.886Z,0.90
2023-06-25T11:11:11.951Z,0.80
2023-06-25T11:13:57.410Z,1.02
2023-06-25T11:16:48.728Z,0.63
2023-06-25T11:19:34.832Z,0.50
2023-06-25T11:22:20.985Z,0.70
2023-06-25T11:25:07.958Z,0.50
2023-06-25T11:28:03.468Z,0.60
2023-06-25T11:30:49.147Z,0.60
2023-06-25T11:33:34.486Z,0.50
2023-06-25T11:36:23.998Z,0.60
2023-06-25T11:39:09.685Z,0.50
2023-06-25T11:41:55.208Z,0.63
2023-06-25T11:44:40.628Z,0.50
2023-06-25T11:47:25.990Z,0.68
2023-06-25T11:50:12.475Z,0.80
2023-06-25T11:52:58.060Z,0.55
2023-06-25T11:55:43.588Z,0.57
2023-06-25T11:58:30.208Z,0.60
2023-06-25T12:01:15.692Z,1.10
2023-06-25T12:04:00.986Z,0.73
2023-06-25T12:06:46.406Z,0.55
2023-06-25T12:09:31.741Z,0.40
2023-06-25T12:12:17.449Z,0.85
2023-06-25T12:15:02.874Z,0.57
2023-06-25T12:17:48.276Z,1.23
2023-06-25T12:20:33.530Z,0.75
2023-06-25T12:23:19.254Z,0.60
2023-06-25T12:26:04.674Z,0.70
2023-06-25T12:28:50.112Z,0.50
2023-06-25T12:31:35.840Z,0.60
2023-06-25T12:34:21.271Z,0.68
2023-06-25T12:37:06.822Z,0.50
2023-06-25T12:39:52.256Z,0.75
2023-06-25T12:42:37.599Z,0.60
2023-06-25T12:45:23.123Z,0.40
2023-06-25T12:48:08.735Z,0.50
2023-06-25T12:50:54.107Z,0.32
2023-06-25T12:53:39.677Z,0.65
2023-06-25T12:56:27.360Z,0.45
2023-06-25T12:59:12.718Z,0.43
2023-06-25T13:01:59.805Z,0.40
2023-06-25T13:04:45.424Z,0.40
2023-06-25T13:07:30.853Z,0.50
2023-06-25T13:10:16.110Z,0.30
2023-06-25T13:13:01.653Z,0.40
2023-06-25T13:15:47.404Z,0.20
2023-06-25T13:18:32.935Z,0.28
2023-06-25T13:21:18.390Z,0.60
2023-06-25T13:24:03.753Z,0.45
2023-06-25T13:26:50.205Z,0.43
2023-06-25T13:29:35.659Z,0.32
2023-06-25T13:32:20.828Z,0.40
2023-06-25T13:35:06.485Z,0.28
2023-06-25T13:37:52.006Z,0.60
2023-06-25T13:40:37.649Z,0.55
2023-06-25T13:43:23.316Z,0.57
2023-06-25T13:46:08.629Z,0.35
2023-06-25T13:48:53.860Z,0.50
2023-06-25T13:51:39.210Z,0.40
2023-06-25T13:54:24.699Z,0.40
2023-06-25T13:57:10.118Z,0.32
2023-06-25T13:59:55.490Z,0.40
2023-06-25T14:02:43.101Z,0.30
2023-06-25T14:05:28.736Z,0.65
2023-06-25T14:08:14.600Z,0.50
2023-06-25T14:10:59.993Z,0.50
2023-06-25T14:13:45.332Z,0.52
2023-06-25T14:16:33.233Z,0.25
2023-06-25T14:19:18.662Z,0.60
2023-06-25T14:22:04.295Z,1.50
2023-06-25T14:24:50.081Z,0.65
2023-06-25T14:27:35.421Z,0.43
2023-06-25T14:30:21.513Z,0.77
2023-06-25T14:33:07.423Z,0.80
2023-06-25T14:35:52.836Z,0.82
2023-06-25T14:38:38.944Z,0.55
2023-06-25T14:41:24.365Z,0.52
2023-06-25T14:44:10.006Z,0.70
2023-06-25T14:46:55.450Z,0.40
2023-06-25T14:49:40.797Z,0.82
2023-06-25T14:52:27.781Z,0.70
2023-06-25T14:55:13.355Z,0.40
2023-06-25T14:57:59.850Z,0.60
2023-06-25T15:00:45.588Z,0.60
2023-06-25T15:03:31.077Z,0.60
2023-06-25T15:06:31.095Z,0.68
2023-06-25T15:09:20.699Z,0.47
2023-06-25T15:12:06.749Z,0.60
2023-06-25T15:14:52.159Z,0.85
2023-06-25T15:17:37.428Z,0.82
2023-06-25T15:20:22.738Z,0.60
2023-06-25T15:23:08.087Z,0.82
2023-06-25T15:25:55.982Z,1.30
2023-06-25T15:28:42.293Z,1.00
2023-06-25T15:31:27.690Z,1.00
2023-06-25T15:34:14.155Z,0.82
2023-06-25T15:36:59.642Z,0.70
2023-06-25T15:39:45.079Z,1.00
2023-06-25T15:42:30.689Z,1.10
2023-06-25T15:45:16.437Z,1.40
2023-06-25T15:48:02.054Z,1.05
2023-06-25T15:50:47.464Z,1.50
2023-06-25T15:53:33.076Z,1.08
2023-06-25T15:56:18.411Z,1.00
2023-06-25T15:59:04.400Z,1.63
2023-06-25T16:01:49.798Z,1.00
2023-06-25T16:04:35.647Z,1.00
2023-06-25T16:07:21.070Z,1.02
2023-06-25T16:10:06.687Z,1.08
2023-06-25T16:12:52.368Z,1.67
2023-06-25T16:15:37.897Z,4.63
2023-06-25T16:18:23.451Z,2.72
2023-06-25T16:21:09.282Z,3.45
2023-06-25T16:23:54.584Z,5.03
2023-06-25T16:26:40.060Z,0.70
2023-06-25T16:29:25.284Z,0.98
2023-06-25T16:32:10.682Z,7.63
2023-06-25T16:34:55.995Z,0.98
2023-06-25T16:37:41.509Z,0.98
2023-06-25T16:40:27.154Z,4.55
2023-06-25T16:43:12.443Z,1.00
2023-06-25T16:45:57.636Z,1.05
2023-06-25T16:48:44.011Z,0.80
2023-06-25T16:51:29.706Z,1.00
2023-06-25T16:54:15.309Z,0.80
2023-06-25T16:57:01.658Z,0.60
2023-06-25T16:59:47.343Z,0.77
2023-06-25T17:02:33.023Z,1.38
2023-06-25T17:05:18.572Z,0.45
2023-06-25T17:08:04.170Z,0.82
2023-06-25T17:10:49.722Z,0.75
2023-06-25T17:13:35.125Z,0.68
2023-06-25T17:16:20.338Z,0.90
2023-06-25T17:19:05.665Z,0.70
2023-06-25T17:21:51.065Z,0.60
2023-06-25T17:24:36.363Z,0.63
2023-06-25T17:27:23.641Z,0.80
2023-06-25T17:30:09.250Z,0.68
2023-06-25T17:32:54.875Z,0.55
2023-06-25T17:35:40.518Z,0.77
2023-06-25T17:38:26.183Z,0.88
2023-06-25T17:41:11.692Z,0.52
2023-06-25T17:43:57.310Z,0.60
2023-06-25T17:46:44.628Z,0.60
2023-06-25T17:49:30.444Z,0.70
2023-06-25T17:52:16.034Z,0.90
2023-06-25T17:55:02.183Z,0.60
2023-06-25T17:57:48.362Z,0.50
2023-06-25T18:00:33.604Z,0.82
2023-06-25T18:03:20.426Z,0.47
2023-06-25T18:06:06.257Z,0.50
2023-06-25T18:08:51.772Z,0.50
2023-06-25T18:11:37.406Z,0.45
2023-06-25T18:14:22.713Z,0.57
2023-06-25T18:17:08.061Z,0.75
2023-06-25T18:19:53.345Z,0.60
2023-06-25T18:22:39.977Z,0.60
2023-06-25T18:25:25.523Z,0.50
2023-06-25T18:28:10.950Z,0.50
2023-06-25T18:30:59.663Z,0.77
2023-06-25T18:33:45.439Z,0.38
2023-06-25T18:36:30.659Z,0.40
2023-06-25T18:39:16.047Z,0.43
2023-06-25T18:42:01.324Z,0.63
2023-06-25T18:44:46.583Z,0.50
2023-06-25T18:47:33.131Z,0.63
2023-06-25T18:50:21.355Z,0.60
2023-06-25T18:53:07.030Z,0.60
2023-06-25T18:55:53.175Z,0.40
2023-06-25T18:58:39.855Z,0.70
2023-06-25T19:01:25.508Z,0.60
2023-06-25T19:04:12.016Z,0.70
2023-06-25T19:06:57.932Z,0.80
2023-06-25T19:09:43.324Z,0.40
2023-06-25T19:12:28.580Z,0.55
2023-06-25T19:15:13.951Z,0.55
2023-06-25T19:17:59.866Z,0.90
2023-06-25T19:20:45.449Z,0.95
2023-06-25T19:23:31.627Z,0.75
2023-06-25T19:26:17.999Z,0.65
2023-06-25T19:29:03.467Z,0.85
2023-06-25T19:31:49.541Z,0.63
2023-06-25T19:34:35.121Z,0.80
2023-06-25T19:37:20.526Z,1.33
2023-06-25T19:40:06.727Z,1.00
2023-06-25T19:42:52.080Z,0.90
2023-06-25T19:45:37.956Z,0.80
2023-06-25T19:48:23.437Z,0.90
2023-06-25T19:51:10.700Z,0.55
2023-06-25T19:53:55.980Z,0.88
2023-06-25T19:56:41.438Z,1.23
2023-06-25T19:59:26.862Z,1.10
2023-06-25T20:02:12.588Z,0.80
2023-06-25T20:04:58.041Z,0.80
2023-06-25T20:07:49.301Z,0.60
2023-06-25T20:13:21.104Z,0.50
2023-06-25T20:16:06.359Z,1.00
2023-06-25T20:18:51.814Z,0.90
2023-06-25T20:21:37.371Z,0.85
2023-06-25T20:24:22.623Z,0.90
2023-06-25T20:27:08.133Z,0.80
2023-06-25T20:29:53.546Z,0.55
2023-06-25T20:32:38.961Z,0.70
2023-06-25T20:35:24.706Z,0.90
2023-06-25T20:38:09.923Z,0.95
2023-06-25T20:40:55.293Z,1.20
2023-06-25T20:43:40.869Z,0.95
2023-06-25T20:46:26.148Z,0.88
2023-06-25T20:49:20.203Z,0.82
2023-06-25T20:52:06.659Z,0.68
2023-06-25T20:54:52.680Z,0.93
2023-06-25T20:57:38.245Z,1.00
2023-06-25T21:00:24.137Z,0.95
2023-06-25T21:03:09.564Z,1.20
2023-06-25T21:05:55.703Z,0.85
2023-06-25T21:08:44.107Z,1.20
2023-06-25T21:11:29.686Z,1.13
2023-06-25T21:14:15.311Z,0.73
2023-06-25T21:17:00.759Z,1.23
2023-06-25T21:19:45.995Z,0.90
2023-06-25T21:22:31.259Z,0.90
2023-06-25T21:25:16.737Z,1.05
2023-06-25T21:28:02.442Z,1.17
2023-06-25T21:30:48.156Z,1.10
2023-06-25T21:33:33.943Z,0.65
2023-06-25T21:36:19.404Z,1.00
2023-06-25T21:39:07.615Z,0.93
2023-06-25T21:41:52.868Z,0.77
2023-06-25T21:44:38.240Z,1.00
2023-06-25T21:47:23.548Z,0.57
2023-06-25T21:50:09.463Z,1.00
2023-06-25T21:52:54.875Z,0.68
2023-06-25T21:55:40.207Z,1.33
2023-06-25T21:58:25.680Z,1.00
2023-06-25T22:01:11.296Z,1.20
2023-06-25T22:03:56.703Z,0.80
2023-06-25T22:06:53.341Z,0.95
2023-06-25T22:09:40.728Z,0.90
2023-06-25T22:12:26.205Z,1.00
2023-06-25T22:15:11.861Z,0.90
2023-06-25T22:17:58.517Z,0.90
2023-06-25T22:20:43.747Z,0.73
2023-06-25T22:23:29.203Z,0.90
2023-06-25T22:26:14.612Z,0.98
2023-06-25T22:28:59.890Z,1.92
2023-06-25T22:31:45.446Z,1.25
2023-06-25T22:34:30.996Z,0.85
2023-06-25T22:37:16.523Z,0.98
2023-06-25T22:40:01.970Z,0.90
2023-06-25T22:42:47.306Z,0.80
2023-06-25T22:45:32.832Z,1.20
2023-06-25T22:48:18.226Z,1.55
2023-06-25T22:51:03.616Z,0.82
2023-06-25T22:53:49.196Z,1.17
2023-06-25T22:56:35.806Z,1.17
2023-06-25T22:59:21.548Z,1.05
2023-06-25T23:02:07.801Z,1.00
2023-06-25T23:04:56.515Z,1.00
2023-06-25T23:07:42.213Z,1.20
2023-06-25T23:10:27.543Z,1.00
2023-06-25T23:13:13.736Z,1.30
2023-06-25T23:15:59.876Z,1.00
2023-06-25T23:18:48.864Z,1.00
2023-06-25T23:21:34.310Z,0.82
2023-06-25T23:24:19.796Z,1.40
2023-06-25T23:27:09.277Z,1.00
2023-06-25T23:29:58.228Z,0.82
2023-06-25T23:32:45.383Z,0.82
2023-06-25T23:35:34.302Z,0.93
2023-06-25T23:38:19.831Z,1.27
2023-06-25T23:41:05.197Z,1.10
2023-06-25T23:43:50.592Z,0.80
2023-06-25T23:46:35.948Z,1.05
2023-06-25T23:49:21.374Z,0.95
2023-06-25T23:52:07.128Z,2.35
2023-06-25T23:54:52.463Z,1.25
2023-06-25T23:57:37.857Z,1.17
